Indianapolis, Indiana
Traffic Map
Current Weather Conditions
Indianapolis, Indiana
Broken Clouds
Broken Clouds
12°
Feels Like: 12°
Wind Chill: 12° Ceiling: 2500
Heat Index: 12° Visibility: 10mi
Dew Point: Wind: 9mph
Humidity: 72% Direction: 240° (WSW)
Pressure: 30.1in Gusts: 0mph
Raw Report DataKIND 241554Z 24008KT 10SM BKN025 BKN085 12/07 A3010 RMK AO2 SLP192 T01220072
Traffic Incident Summary
Active as of:
Severity:
Category:
InformationThere was an issue retrieving the traffic information for this location. Please try a different location or try again shortly.
Advertisements
Track Severe Weather on mobile